| time (UTC) | temp C | wind direction | speed KPH | gust KPH | rain 1hr cm | rain 24hr cm | rain mn cm | humidity % | barometer mb |
| 20260510093307 | 13 | 317 | 3.2 | 9.7 | 0.00 | 0.00 | 0.00 | 70 | 1011.7 |
| 20260510092806 | 13 | 317 | 1.6 | 6.4 | 0.00 | 0.00 | 0.00 | 70 | 1011.7 |
| 20260510092307 | 13 | 317 | 0.0 | 4.8 | 0.00 | 0.00 | 0.00 | 70 | 1011.7 |
| 20260510092024 | 13 | 318 | 0.0 | 0.0 | 0.00 | 0.00 | 0.00 | 69 | 1011.6 |
| 20260510091303 | 13 | 318 | 0.0 | 4.8 | 0.00 | 0.00 | 0.00 | 68 | 1011.5 |
| 20260510090801 | 13 | 318 | 1.6 | 9.7 | 0.00 | 0.00 | 0.00 | 68 | 1011.5 |
| 20260510090258 | 14 | 318 | 6.4 | 12.9 | 0.00 | 0.00 | 0.00 | 67 | 1011.4 |
| 20260510085756 | 14 | 317 | 8.0 | 12.9 | 0.00 | 0.00 | 0.00 | 67 | 1011.4 |
| 20260510085517 | 14 | 45 | 6.4 | 12.9 | 0.00 | 0.00 | 0.00 | 67 | 1011.4 |
| 20260510084756 | 14 | 45 | 6.4 | 14.5 | 0.00 | 0.00 | 0.00 | 67 | 1011.4 |
| 20260510084256 | 14 | 45 | 6.4 | 14.5 | 0.00 | 0.00 | 0.00 | 67 | 1011.4 |
| 20260510083756 | 14 | 275 | 6.4 | 11.3 | 0.00 | 0.00 | 0.00 | 67 | 1011.5 |
| 20260510083255 | 14 | 274 | 6.4 | 11.3 | 0.00 | 0.00 | 0.00 | 67 | 1011.6 |
| 20260510082749 | 14 | 276 | 6.4 | 11.3 | 0.00 | 0.00 | 0.00 | 67 | 1011.5 |
| 20260510082244 | 14 | 270 | 6.4 | 12.9 | 0.00 | 0.00 | 0.00 | 67 | 1011.5 |
| 20260510081738 | 14 | 272 | 6.4 | 12.9 | 0.00 | 0.00 | 0.00 | 67 | 1011.5 |
| 20260510081453 | 14 | 266 | 6.4 | 11.3 | 0.00 | 0.00 | 0.00 | 67 | 1011.5 |
| 20260510080726 | 14 | 266 | 4.8 | 9.7 | 0.00 | 0.00 | 0.00 | 67 | 1011.4 |
| 20260510080220 | 14 | 254 | 4.8 | 8.0 | 0.00 | 0.00 | 0.00 | 67 | 1011.4 |
| 20260510075715 | 14 | 254 | 4.8 | 8.0 | 0.00 | 0.00 | 0.00 | 66 | 1011.3 |
| 20260510075214 | 14 | 254 | 6.4 | 8.0 | 0.00 | 0.00 | 0.00 | 66 | 1011.3 |
| 20260510074713 | 14 | 254 | 4.8 | 8.0 | 0.00 | 0.00 | 0.00 | 66 | 1011.2 |
| 20260510074210 | 14 | 254 | 4.8 | 9.7 | 0.00 | 0.00 | 0.00 | 65 | 1011.1 |
| 20260510073709 | 14 | 254 | 6.4 | 9.7 | 0.00 | 0.00 | 0.00 | 65 | 1011.1 |
| 20260510073208 | 14 | 254 | 6.4 | 9.7 | 0.00 | 0.00 | 0.00 | 65 | 1011.1 |
| 20260510072708 | 14 | 254 | 4.8 | 9.7 | 0.00 | 0.00 | 0.00 | 65 | 1011.1 |
| 20260510072206 | 14 | 252 | 6.4 | 11.3 | 0.00 | 0.00 | 0.00 | 65 | 1011.1 |
| 20260510071706 | 15 | 251 | 6.4 | 11.3 | 0.00 | 0.00 | 0.00 | 64 | 1011.1 |
| 20260510071651 | 15 | 245 | 6.4 | 9.7 | 0.00 | 0.00 | 0.00 | 64 | 1011.1 |
| 20260510070705 | 15 | 245 | 6.4 | 12.9 | 0.00 | 0.00 | 0.00 | 64 | 1011.1 |
| 20260510070204 | 15 | 245 | 8.0 | 12.9 | 0.00 | 0.00 | 0.00 | 63 | 1011.2 |
| 20260510065704 | 15 | 227 | 8.0 | 11.3 | 0.00 | 0.00 | 0.00 | 63 | 1011.1 |
| 20260510065201 | 15 | 225 | 6.4 | 9.7 | 0.00 | 0.00 | 0.00 | 63 | 1010.8 |
| 20260510064928 | 15 | 223 | 6.4 | 11.3 | 0.00 | 0.00 | 0.00 | 63 | 1010.8 |
| 20260510064202 | 15 | 223 | 6.4 | 11.3 | 0.00 | 0.00 | 0.00 | 63 | 1010.8 |
| 20260510063700 | 15 | 222 | 6.4 | 9.7 | 0.00 | 0.00 | 0.00 | 63 | 1010.6 |
| 20260510063200 | 15 | 220 | 4.8 | 9.7 | 0.00 | 0.00 | 0.00 | 63 | 1010.7 |
| 20260510062701 | 15 | 219 | 6.4 | 11.3 | 0.00 | 0.00 | 0.00 | 63 | 1010.7 |
| 20260510062200 | 15 | 218 | 8.0 | 11.3 | 0.00 | 0.00 | 0.00 | 62 | 1010.7 |
| 20260510061655 | 15 | 217 | 8.0 | 12.9 | 0.00 | 0.00 | 0.00 | 62 | 1010.7 |
| 20260510061149 | 15 | 216 | 9.7 | 14.5 | 0.00 | 0.00 | 0.00 | 61 | 1010.7 |
| 20260510060906 | 15 | 214 | 9.7 | 14.5 | 0.00 | 0.00 | 0.00 | 61 | 1010.8 |
| 20260510060359 | 15 | 214 | 9.7 | 14.5 | 0.00 | 0.00 | 0.00 | 60 | 1010.8 |
| 20260510055630 | 15 | 213 | 9.7 | 16.1 | 0.00 | 0.00 | 0.00 | 60 | 1010.8 |
| 20260510055125 | 15 | 213 | 11.3 | 19.3 | 0.00 | 0.00 | 0.00 | 60 | 1010.8 |
| 20260510054619 | 15 | 211 | 11.3 | 19.3 | 0.00 | 0.00 | 0.00 | 60 | 1010.7 |
| 20260510054341 | 15 | 212 | 11.3 | 20.9 | 0.00 | 0.00 | 0.00 | 60 | 1010.6 |
| 20260510053611 | 15 | 210 | 9.7 | 20.9 | 0.00 | 0.00 | 0.00 | 61 | 1010.6 |
| 20260510053112 | 15 | 220 | 3.2 | 16.1 | 0.00 | 0.00 | 0.00 | 61 | 1010.7 |
| 20260510052612 | 15 | 279 | 0.0 | 6.4 | 0.00 | 0.00 | 0.00 | 61 | 1010.7 |
| 20260510052112 | 15 | 45 | 3.2 | 8.0 | 0.00 | 0.00 | 0.00 | 60 | 1010.7 |
| 20260510051611 | 15 | 45 | 4.8 | 14.5 | 0.00 | 0.00 | 0.00 | 60 | 1010.6 |
| 20260510051109 | 15 | 45 | 4.8 | 14.5 | 0.00 | 0.00 | 0.00 | 60 | 1010.7 |
| 20260510050839 | 15 | 45 | 4.8 | 9.7 | 0.00 | 0.00 | 0.00 | 60 | 1010.8 |
| 20260510050109 | 15 | 45 | 4.8 | 9.7 | 0.00 | 0.00 | 0.00 | 60 | 1010.8 |
| 20260510045607 | 14 | 45 | 3.2 | 9.7 | 0.00 | 0.00 | 0.00 | 61 | 1010.8 |
| 20260510045108 | 14 | 45 | 3.2 | 6.4 | 0.00 | 0.00 | 0.00 | 60 | 1010.8 |
| 20260510044608 | 15 | 45 | 4.8 | 8.0 | 0.00 | 0.00 | 0.00 | 60 | 1010.8 |
| 20260510044331 | 15 | 45 | 4.8 | 8.0 | 0.00 | 0.00 | 0.00 | 60 | 1011.0 |
| 20260510043608 | 15 | 45 | 6.4 | 12.9 | 0.00 | 0.00 | 0.00 | 59 | 1011.0 |
| 20260510043327 | 15 | 45 | 6.4 | 12.9 | 0.00 | 0.00 | 0.00 | 59 | 1011.0 |
| 20260510042608 | 15 | 45 | 6.4 | 12.9 | 0.00 | 0.00 | 0.00 | 58 | 1011.1 |
| 20260510042329 | 15 | 45 | 8.0 | 14.5 | 0.00 | 0.00 | 0.00 | 58 | 1011.1 |
| 20260510041609 | 15 | 45 | 9.7 | 16.1 | 0.00 | 0.00 | 0.00 | 57 | 1011.1 |
| 20260510041329 | 15 | 274 | 8.0 | 16.1 | 0.00 | 0.00 | 0.00 | 57 | 1011.1 |
| 20260510040609 | 15 | 45 | 9.7 | 16.1 | 0.00 | 0.00 | 0.00 | 58 | 1011.1 |
| 20260510040327 | 15 | 45 | 9.7 | 16.1 | 0.00 | 0.00 | 0.00 | 58 | 1011.1 |
| 20260510035602 | 15 | 45 | 8.0 | 14.5 | 0.00 | 0.00 | 0.00 | 58 | 1011.0 |
| 20260510035056 | 15 | 313 | 8.0 | 12.9 | 0.00 | 0.00 | 0.00 | 58 | 1011.0 |
| 20260510034550 | 15 | 313 | 8.0 | 12.9 | 0.00 | 0.00 | 0.00 | 58 | 1011.0 |
| 20260510034531 | 15 | 312 | 8.0 | 16.1 | 0.00 | 0.00 | 0.00 | 58 | 1011.0 |
| 20260510033538 | 15 | 319 | 9.7 | 17.7 | 0.00 | 0.00 | 0.00 | 58 | 1011.0 |
| 20260510033032 | 15 | 314 | 9.7 | 17.7 | 0.00 | 0.00 | 0.00 | 59 | 1011.0 |
| 20260510032525 | 15 | 324 | 9.7 | 16.1 | 0.00 | 0.00 | 0.00 | 59 | 1011.0 |
| 20260510032019 | 15 | 317 | 8.0 | 16.1 | 0.00 | 0.00 | 0.00 | 60 | 1010.8 |
| 20260510031958 | 15 | 312 | 6.4 | 11.3 | 0.00 | 0.00 | 0.00 | 60 | 1010.8 |
| 20260510031232 | 15 | 277 | 4.8 | 9.7 | 0.00 | 0.00 | 0.00 | 59 | 1010.8 |
| 20260510030502 | 15 | 272 | 4.8 | 9.7 | 0.00 | 0.00 | 0.00 | 59 | 1010.8 |
| 20260510030223 | 15 | 271 | 4.8 | 9.7 | 0.00 | 0.00 | 0.00 | 59 | 1010.8 |
| 20260510025450 | 15 | 270 | 6.4 | 8.0 | 0.00 | 0.00 | 0.00 | 59 | 1010.8 |
| 20260510024944 | 15 | 270 | 6.4 | 9.7 | 0.00 | 0.00 | 0.00 | 59 | 1010.6 |
| 20260510024438 | 15 | 270 | 6.4 | 9.7 | 0.00 | 0.00 | 0.00 | 58 | 1010.6 |
| 20260510023932 | 15 | 269 | 6.4 | 9.7 | 0.00 | 0.00 | 0.00 | 58 | 1010.5 |
| 20260510023426 | 16 | 269 | 3.2 | 9.7 | 0.00 | 0.00 | 0.00 | 57 | 1010.6 |
| 20260510022920 | 15 | 269 | 1.6 | 6.4 | 0.00 | 0.00 | 0.00 | 57 | 1010.5 |
| 20260510022414 | 16 | 269 | 3.2 | 8.0 | 0.00 | 0.00 | 0.00 | 58 | 1010.3 |
| 20260510022127 | 16 | 269 | 4.8 | 9.7 | 0.00 | 0.00 | 0.00 | 58 | 1010.2 |
| 20260510021402 | 16 | 269 | 6.4 | 11.3 | 0.00 | 0.00 | 0.00 | 58 | 1010.1 |
| 20260510021122 | 16 | 267 | 8.0 | 11.3 | 0.00 | 0.00 | 0.00 | 57 | 1009.9 |
| 20260510020350 | 16 | 252 | 8.0 | 11.3 | 0.00 | 0.00 | 0.00 | 57 | 1009.9 |
| 20260510020106 | 15 | 246 | 4.8 | 11.3 | 0.00 | 0.00 | 0.00 | 58 | 1009.9 |
| 20260510015603 | 15 | 268 | 1.6 | 3.2 | 0.00 | 0.00 | 0.00 | 61 | 1009.9 |
| 20260510015055 | 15 | 268 | 3.2 | 9.7 | 0.00 | 0.00 | 0.00 | 60 | 1009.7 |
| 20260510014325 | 16 | 268 | 6.4 | 12.9 | 0.00 | 0.00 | 0.00 | 58 | 1009.6 |
| 20260510013820 | 17 | 274 | 11.3 | 20.9 | 0.00 | 0.00 | 0.00 | 54 | 1009.5 |
| 20260510013539 | 17 | 45 | 12.9 | 20.9 | 0.00 | 0.00 | 0.00 | 53 | 1009.3 |
| 20260510012808 | 17 | 316 | 11.3 | 19.3 | 0.00 | 0.00 | 0.00 | 53 | 1009.0 |
| 20260510012302 | 17 | 339 | 8.0 | 16.1 | 0.00 | 0.00 | 0.00 | 54 | 1009.0 |
| 20260510011755 | 17 | 266 | 6.4 | 11.3 | 0.00 | 0.00 | 0.00 | 54 | 1009.2 |
| 20260510011249 | 17 | 260 | 4.8 | 11.3 | 0.00 | 0.00 | 0.00 | 54 | 1009.3 |
| 20260510010744 | 17 | 254 | 4.8 | 8.0 | 0.00 | 0.00 | 0.00 | 54 | 1009.2 |
| 20260510010238 | 17 | 254 | 4.8 | 8.0 | 0.00 | 0.00 | 0.00 | 54 | 1009.0 |
| 20260510005732 | 17 | 251 | 4.8 | 9.7 | 0.00 | 0.00 | 0.00 | 54 | 1008.9 |
| 20260510005226 | 17 | 250 | 6.4 | 9.7 | 0.00 | 0.00 | 0.00 | 55 | 1008.8 |
| 20260510004719 | 17 | 246 | 6.4 | 8.0 | 0.00 | 0.00 | 0.00 | 56 | 1008.8 |
| 20260510004406 | 17 | 244 | 4.8 | 8.0 | 0.00 | 0.00 | 0.00 | 54 | 1008.6 |
| 20260510004255 | 17 | 245 | 6.4 | 8.0 | 0.00 | 0.00 | 0.00 | 55 | 1008.7 |
| 20260510003202 | 18 | 244 | 4.8 | 8.0 | 0.00 | 0.00 | 0.00 | 54 | 1008.6 |
| 20260510002656 | 18 | 270 | 4.8 | 6.4 | 0.00 | 0.00 | 0.00 | 55 | 1008.5 |
| 20260510002150 | 18 | 270 | 4.8 | 8.0 | 0.00 | 0.00 | 0.00 | 54 | 1008.4 |
| 20260510001649 | 18 | 270 | 4.8 | 8.0 | 0.00 | 0.00 | 0.00 | 54 | 1008.3 |
| 20260510001147 | 18 | 270 | 4.8 | 8.0 | 0.00 | 0.00 | 0.00 | 54 | 1008.3 |
| 20260510000645 | 18 | 270 | 4.8 | 9.7 | 0.00 | 0.00 | 0.00 | 55 | 1008.2 |
| 20260510000145 | 18 | 268 | 6.4 | 9.7 | 0.00 | 0.00 | 0.00 | 57 | 1008.2 |
| 20260509235643 | 18 | 268 | 8.0 | 12.9 | 0.00 | 0.00 | 0.00 | 58 | 1008.0 |
| 20260509235142 | 18 | 268 | 6.4 | 12.9 | 0.00 | 0.00 | 0.00 | 59 | 1008.0 |
| 20260509234642 | 19 | 268 | 3.2 | 9.7 | 0.00 | 0.00 | 0.00 | 59 | 1007.9 |
| 20260509234142 | 19 | 266 | 3.2 | 9.7 | 0.00 | 0.00 | 0.00 | 60 | 1007.8 |
| 20260509233643 | 19 | 266 | 4.8 | 9.7 | 0.00 | 0.00 | 0.00 | 60 | 1007.9 |
| 20260509233143 | 19 | 266 | 6.4 | 11.3 | 0.00 | 0.00 | 0.00 | 61 | 1007.8 |
| 20260509232642 | 19 | 265 | 8.0 | 14.5 | 0.00 | 0.00 | 0.00 | 60 | 1007.8 |
| 20260509232400 | 19 | 260 | 9.7 | 14.5 | 0.00 | 0.00 | 0.00 | 60 | 1007.9 |
| 20260509231638 | 19 | 258 | 11.3 | 17.7 | 0.00 | 0.00 | 0.00 | 59 | 1007.8 |
| 20260509231138 | 19 | 214 | 9.7 | 17.7 | 0.00 | 0.00 | 0.00 | 59 | 1007.8 |
| 20260509230639 | 20 | 231 | 11.3 | 19.3 | 0.00 | 0.00 | 0.00 | 58 | 1007.8 |
| 20260509230139 | 19 | 237 | 11.3 | 19.3 | 0.00 | 0.00 | 0.00 | 60 | 1007.8 |
| 20260509225639 | 19 | 213 | 9.7 | 19.3 | 0.00 | 0.00 | 0.00 | 59 | 1007.8 |
| 20260509225138 | 19 | 212 | 8.0 | 19.3 | 0.00 | 0.00 | 0.00 | 59 | 1007.8 |
| 20260509224638 | 19 | 222 | 9.7 | 17.7 | 0.00 | 0.00 | 0.00 | 59 | 1007.8 |
| 20260509224138 | 19 | 223 | 9.7 | 17.7 | 0.00 | 0.00 | 0.00 | 58 | 1007.8 |
| 20260509223632 | 19 | 222 | 11.3 | 22.5 | 0.00 | 0.00 | 0.00 | 60 | 1007.8 |
| 20260509223126 | 19 | 219 | 11.3 | 22.5 | 0.00 | 0.00 | 0.00 | 59 | 1007.9 |
| 20260509222620 | 19 | 212 | 11.3 | 19.3 | 0.00 | 0.00 | 0.00 | 58 | 1007.8 |
| 20260509222113 | 19 | 211 | 11.3 | 19.3 | 0.00 | 0.00 | 0.00 | 58 | 1007.9 |
| 20260509221608 | 19 | 223 | 9.7 | 17.7 | 0.00 | 0.00 | 0.00 | 58 | 1007.8 |
| 20260509221102 | 19 | 218 | 11.3 | 17.7 | 0.00 | 0.00 | 0.00 | 57 | 1007.8 |
| 20260509220556 | 20 | 256 | 11.3 | 16.1 | 0.00 | 0.00 | 0.00 | 57 | 1007.8 |
| 20260509220049 | 20 | 247 | 11.3 | 17.7 | 0.00 | 0.00 | 0.00 | 58 | 1007.8 |
| 20260509220021 | 20 | 225 | 12.9 | 17.7 | 0.00 | 0.00 | 0.00 | 57 | 1007.7 |
| 20260509215038 | 20 | 233 | 12.9 | 22.5 | 0.00 | 0.00 | 0.00 | 59 | 1007.7 |
| 20260509214531 | 20 | 247 | 9.7 | 22.5 | 0.00 | 0.00 | 0.00 | 58 | 1007.6 |
| 20260509214026 | 20 | 237 | 8.0 | 14.5 | 0.00 | 0.00 | 0.00 | 58 | 1007.7 |
| 20260509213520 | 19 | 237 | 9.7 | 14.5 | 0.00 | 0.00 | 0.00 | 59 | 1007.6 |
| 20260509213014 | 19 | 239 | 11.3 | 17.7 | 0.00 | 0.00 | 0.00 | 59 | 1007.7 |
| 20260509212507 | 19 | 241 | 11.3 | 17.7 | 0.00 | 0.00 | 0.00 | 57 | 1007.6 |
| 20260509212224 | 19 | 225 | 9.7 | 14.5 | 0.00 | 0.00 | 0.00 | 60 | 1007.5 |
| 20260509211456 | 19 | 220 | 9.7 | 17.7 | 0.00 | 0.00 | 0.00 | 58 | 1007.5 |
| 20260509210949 | 19 | 217 | 11.3 | 24.1 | 0.00 | 0.00 | 0.00 | 57 | 1007.5 |
| 20260509210443 | 19 | 239 | 12.9 | 24.1 | 0.00 | 0.00 | 0.00 | 57 | 1007.6 |
| 20260509205938 | 19 | 256 | 16.1 | 25.7 | 0.00 | 0.00 | 0.00 | 57 | 1007.5 |
| 20260509205431 | 19 | 253 | 16.1 | 25.7 | 0.00 | 0.00 | 0.00 | 55 | 1007.5 |
| 20260509205146 | 19 | 265 | 14.5 | 24.1 | 0.00 | 0.00 | 0.00 | 56 | 1007.4 |
| 20260509204420 | 19 | 261 | 14.5 | 24.1 | 0.00 | 0.00 | 0.00 | 55 | 1007.5 |
| 20260509203913 | 19 | 252 | 14.5 | 24.1 | 0.00 | 0.00 | 0.00 | 54 | 1007.5 |
| 20260509203408 | 19 | 254 | 12.9 | 24.1 | 0.00 | 0.00 | 0.00 | 54 | 1007.2 |
| 20260509202901 | 19 | 265 | 12.9 | 24.1 | 0.00 | 0.00 | 0.00 | 54 | 1007.1 |
| 20260509202615 | 19 | 274 | 17.7 | 29.0 | 0.00 | 0.00 | 0.00 | 53 | 1007.0 |
| 20260509201849 | 19 | 265 | 19.3 | 29.0 | 0.00 | 0.00 | 0.00 | 52 | 1007.1 |
| 20260509201343 | 20 | 274 | 17.7 | 29.0 | 0.00 | 0.00 | 0.00 | 53 | 1007.1 |
| 20260509200837 | 20 | 250 | 14.5 | 24.1 | 0.00 | 0.00 | 0.00 | 52 | 1007.1 |
| 20260509200559 | 20 | 256 | 14.5 | 24.1 | 0.00 | 0.00 | 0.00 | 54 | 1007.0 |
| 20260509200043 | 20 | 280 | 16.1 | 24.1 | 0.00 | 0.00 | 0.00 | 52 | 1007.1 |
| 20260509195320 | 20 | 216 | 16.1 | 24.1 | 0.00 | 0.00 | 0.00 | 55 | 1007.2 |
| 20260509194814 | 19 | 245 | 19.3 | 32.2 | 0.00 | 0.00 | 0.00 | 54 | 1007.4 |
| 20260509194538 | 19 | 228 | 16.1 | 32.2 | 0.00 | 0.00 | 0.00 | 54 | 1007.2 |
| 20260509193802 | 19 | 258 | 12.9 | 29.0 | 0.00 | 0.00 | 0.00 | 56 | 1007.4 |
| 20260509193255 | 19 | 243 | 16.1 | 27.4 | 0.00 | 0.00 | 0.00 | 54 | 1007.5 |
| 20260509192749 | 20 | 260 | 17.7 | 30.6 | 0.00 | 0.00 | 0.00 | 53 | 1007.5 |
| 20260509192244 | 19 | 248 | 19.3 | 30.6 | 0.00 | 0.00 | 0.00 | 54 | 1007.6 |
| 20260509191738 | 19 | 235 | 17.7 | 30.6 | 0.00 | 0.00 | 0.00 | 53 | 1007.7 |
| 20260509191232 | 20 | 268 | 14.5 | 30.6 | 0.00 | 0.00 | 0.00 | 55 | 1007.7 |
| 20260509190947 | 19 | 218 | 16.1 | 30.6 | 0.00 | 0.00 | 0.00 | 57 | 1007.8 |
| 20260509190220 | 19 | 230 | 19.3 | 30.6 | 0.00 | 0.00 | 0.00 | 52 | 1007.8 |
| 20260509185714 | 19 | 273 | 17.7 | 35.4 | 0.00 | 0.00 | 0.00 | 54 | 1008.0 |
| 20260509185207 | 19 | 218 | 16.1 | 35.4 | 0.00 | 0.00 | 0.00 | 54 | 1007.9 |
| 20260509184701 | 20 | 258 | 17.7 | 32.2 | 0.00 | 0.00 | 0.00 | 57 | 1007.9 |
| 20260509184156 | 20 | 207 | 17.7 | 32.2 | 0.00 | 0.00 | 0.00 | 55 | 1007.9 |
| 20260509183650 | 20 | 225 | 17.7 | 33.8 | 0.00 | 0.00 | 0.00 | 58 | 1008.0 |
| 20260509183143 | 19 | 250 | 19.3 | 33.8 | 0.00 | 0.00 | 0.00 | 55 | 1008.0 |
| 20260509182830 | 18 | 198 | 19.3 | 37.0 | 0.00 | 0.00 | 0.00 | 58 | 1008.2 |
| 20260509182713 | 18 | 258 | 20.9 | 33.8 | 0.00 | 0.00 | 0.00 | 61 | 1008.1 |
| 20260509181845 | 18 | 209 | 19.3 | 37.0 | 0.00 | 0.00 | 0.00 | 58 | 1008.2 |
| 20260509181119 | 18 | 261 | 19.3 | 37.0 | 0.00 | 0.00 | 0.00 | 53 | 1008.2 |
| 20260509180614 | 18 | 220 | 16.1 | 30.6 | 0.00 | 0.00 | 0.00 | 57 | 1008.1 |
| 20260509180108 | 20 | 252 | 14.5 | 29.0 | 0.00 | 0.00 | 0.00 | 54 | 1008.1 |
| 20260509175602 | 19 | 250 | 17.7 | 33.8 | 0.00 | 0.00 | 0.00 | 59 | 1008.2 |
| 20260509175055 | 18 | 182 | 17.7 | 33.8 | 0.00 | 0.00 | 0.00 | 57 | 1008.2 |
| 20260509174812 | 18 | 227 | 17.7 | 29.0 | 0.00 | 0.00 | 0.00 | 60 | 1008.2 |
| 20260509174050 | 18 | 247 | 19.3 | 33.8 | 0.00 | 0.00 | 0.00 | 59 | 1008.3 |
| 20260509173550 | 18 | 206 | 17.7 | 33.8 | 0.00 | 0.00 | 0.00 | 57 | 1008.4 |
| 20260509173049 | 18 | 204 | 16.1 | 30.6 | 0.00 | 0.00 | 0.00 | 60 | 1008.5 |
| 20260509172549 | 18 | 235 | 14.5 | 38.6 | 0.00 | 0.00 | 0.00 | 61 | 1008.5 |
| 20260509172049 | 18 | 223 | 16.1 | 38.6 | 0.00 | 0.00 | 0.00 | 61 | 1008.6 |
| 20260509171806 | 18 | 182 | 19.3 | 30.6 | 0.00 | 0.00 | 0.00 | 60 | 1008.7 |
| 20260509171049 | 18 | 264 | 20.9 | 41.8 | 0.00 | 0.00 | 0.00 | 61 | 1008.8 |
| 20260509170549 | 18 | 225 | 19.3 | 41.8 | 0.00 | 0.00 | 0.00 | 59 | 1008.9 |
| 20260509170050 | 18 | 247 | 19.3 | 30.6 | 0.00 | 0.00 | 0.00 | 64 | 1008.8 |
| 20260509165550 | 17 | 231 | 20.9 | 37.0 | 0.00 | 0.00 | 0.00 | 61 | 1009.0 |
| 20260509165049 | 17 | 243 | 22.5 | 37.0 | 0.00 | 0.00 | 0.00 | 60 | 1009.0 |
| 20260509164545 | 17 | 250 | 22.5 | 35.4 | 0.00 | 0.00 | 0.00 | 58 | 1009.2 |
| 20260509164045 | 17 | 273 | 16.1 | 35.4 | 0.00 | 0.00 | 0.00 | 60 | 1008.9 |
| 20260509163545 | 18 | 228 | 16.1 | 27.4 | 0.00 | 0.00 | 0.00 | 64 | 1008.9 |
| 20260509163045 | 17 | 219 | 14.5 | 25.7 | 0.00 | 0.00 | 0.00 | 64 | 1008.7 |
| 20260509162545 | 17 | 220 | 9.7 | 24.1 | 0.00 | 0.00 | 0.00 | 69 | 1008.8 |
| 20260509162308 | 16 | 234 | 8.0 | 14.5 | 0.00 | 0.00 | 0.00 | 68 | 1008.8 |
| 20260509161546 | 16 | 233 | 6.4 | 14.5 | 0.00 | 0.00 | 0.00 | 68 | 1009.2 |
| 20260509161045 | 16 | 232 | 6.4 | 12.9 | 0.00 | 0.00 | 0.00 | 70 | 1009.2 |
| 20260509160545 | 16 | 231 | 8.0 | 16.1 | 0.00 | 0.00 | 0.00 | 69 | 1009.2 |
| 20260509160301 | 15 | 236 | 11.3 | 19.3 | 0.00 | 0.00 | 0.00 | 69 | 1009.3 |
| 20260509155540 | 15 | 228 | 12.9 | 20.9 | 0.00 | 0.00 | 0.00 | 70 | 1009.2 |
| 20260509155040 | 15 | 220 | 11.3 | 20.9 | 0.00 | 0.00 | 0.00 | 68 | 1009.2 |
| 20260509154540 | 15 | 237 | 11.3 | 16.1 | 0.00 | 0.00 | 0.00 | 68 | 1009.2 |
| 20260509154040 | 16 | 235 | 11.3 | 17.7 | 0.00 | 0.00 | 0.00 | 67 | 1009.2 |
| 20260509153540 | 16 | 233 | 11.3 | 19.3 | 0.00 | 0.00 | 0.00 | 69 | 1009.0 |
| 20260509153037 | 15 | 250 | 11.3 | 19.3 | 0.00 | 0.00 | 0.00 | 70 | 1009.3 |
| 20260509152538 | 15 | 218 | 14.5 | 19.3 | 0.00 | 0.00 | 0.00 | 69 | 1009.4 |
| 20260509152037 | 15 | 231 | 14.5 | 19.3 | 0.00 | 0.00 | 0.00 | 70 | 1009.4 |
| 20260509151537 | 15 | 221 | 14.5 | 24.1 | 0.00 | 0.00 | 0.00 | 71 | 1009.4 |
| 20260509151037 | 15 | 222 | 17.7 | 30.6 | 0.00 | 0.00 | 0.00 | 70 | 1009.5 |
| 20260509150537 | 15 | 216 | 17.7 | 30.6 | 0.00 | 0.00 | 0.00 | 69 | 1009.5 |
| 20260509150039 | 15 | 221 | 16.1 | 25.7 | 0.00 | 0.00 | 0.00 | 69 | 1009.5 |
| 20260509145758 | 15 | 263 | 16.1 | 25.7 | 0.00 | 0.00 | 0.00 | 69 | 1009.5 |
| 20260509145039 | 15 | 239 | 14.5 | 25.7 | 0.00 | 0.00 | 0.00 | 69 | 1009.5 |
| 20260509144538 | 15 | 233 | 14.5 | 25.7 | 0.00 | 0.00 | 0.00 | 70 | 1009.4 |
| 20260509144032 | 15 | 235 | 14.5 | 25.7 | 0.00 | 0.00 | 0.00 | 71 | 1009.5 |
| 20260509143750 | 15 | 207 | 16.1 | 29.0 | 0.00 | 0.00 | 0.00 | 69 | 1009.4 |
| 20260509143020 | 15 | 262 | 16.1 | 29.0 | 0.00 | 0.00 | 0.00 | 69 | 1009.3 |
| 20260509142513 | 15 | 225 | 17.7 | 29.0 | 0.00 | 0.00 | 0.00 | 70 | 1009.3 |
| 20260509142433 | 15 | 242 | 17.7 | 27.4 | 0.00 | 0.00 | 0.00 | 68 | 1009.3 |
| 20260509142048 | 15 | 225 | 17.7 | 29.0 | 0.00 | 0.00 | 0.00 | 68 | 1009.3 |
| 20260509140955 | 15 | 222 | 14.5 | 27.4 | 0.00 | 0.00 | 0.00 | 68 | 1009.3 |
| 20260509140453 | 15 | 249 | 11.3 | 17.7 | 0.00 | 0.00 | 0.00 | 72 | 1009.2 |
| 20260509135953 | 14 | 208 | 9.7 | 16.1 | 0.00 | 0.00 | 0.00 | 72 | 1009.3 |
| 20260509135453 | 14 | 222 | 9.7 | 14.5 | 0.00 | 0.00 | 0.00 | 73 | 1009.4 |
| 20260509134953 | 13 | 241 | 11.3 | 16.1 | 0.00 | 0.00 | 0.00 | 73 | 1009.4 |
| 20260509134453 | 13 | 227 | 11.3 | 16.1 | 0.00 | 0.00 | 0.00 | 72 | 1009.5 |
| 20260509133952 | 13 | 247 | 9.7 | 14.5 | 0.00 | 0.00 | 0.00 | 71 | 1009.6 |
| 20260509133454 | 13 | 242 | 11.3 | 14.5 | 0.00 | 0.00 | 0.00 | 72 | 1009.7 |
| 20260509132953 | 13 | 261 | 11.3 | 16.1 | 0.00 | 0.00 | 0.00 | 72 | 1009.7 |
| 20260509132453 | 13 | 247 | 9.7 | 16.1 | 0.00 | 0.00 | 0.00 | 72 | 1009.7 |
| 20260509131953 | 13 | 237 | 9.7 | 14.5 | 0.00 | 0.00 | 0.00 | 73 | 1009.7 |
| 20260509131934 | 12 | 237 | 8.0 | 14.5 | 0.00 | 0.00 | 0.00 | 73 | 1009.8 |
| 20260509130951 | 12 | 233 | 6.4 | 12.9 | 0.00 | 0.00 | 0.00 | 72 | 1009.9 |
| 20260509130451 | 12 | 233 | 4.8 | 9.7 | 0.00 | 0.00 | 0.00 | 70 | 1009.9 |
| 20260509125949 | 12 | 233 | 4.8 | 8.0 | 0.00 | 0.00 | 0.00 | 68 | 1010.0 |
| 20260509125708 | 12 | 233 | 4.8 | 8.0 | 0.00 | 0.00 | 0.00 | 68 | 1010.1 |
| 20260509124949 | 11 | 233 | 4.8 | 8.0 | 0.00 | 0.00 | 0.00 | 69 | 1010.1 |
| 20260509124447 | 11 | 233 | 6.4 | 11.3 | 0.00 | 0.00 | 0.00 | 70 | 1010.0 |
| 20260509123945 | 11 | 233 | 6.4 | 11.3 | 0.00 | 0.00 | 0.00 | 68 | 1010.1 |
| 20260509123439 | 11 | 233 | 6.4 | 8.0 | 0.00 | 0.00 | 0.00 | 66 | 1010.3 |
| 20260509122933 | 11 | 233 | 6.4 | 9.7 | 0.00 | 0.00 | 0.00 | 67 | 1010.3 |
| 20260509122426 | 11 | 233 | 6.4 | 9.7 | 0.00 | 0.00 | 0.00 | 66 | 1010.4 |
| 20260509122142 | 11 | 233 | 6.4 | 12.9 | 0.00 | 0.00 | 0.00 | 66 | 1010.3 |
| 20260509121415 | 11 | 234 | 6.4 | 12.9 | 0.00 | 0.00 | 0.00 | 66 | 1010.2 |
| 20260509120908 | 11 | 230 | 6.4 | 8.0 | 0.00 | 0.00 | 0.00 | 67 | 1010.2 |
| 20260509120403 | 11 | 228 | 6.4 | 8.0 | 0.00 | 0.00 | 0.00 | 66 | 1010.1 |
| 20260509115857 | 11 | 229 | 6.4 | 9.7 | 0.00 | 0.00 | 0.00 | 64 | 1010.2 |
| 20260509115613 | 11 | 227 | 4.8 | 9.7 | 0.00 | 0.00 | 0.00 | 64 | 1010.2 |
| 20260509114844 | 11 | 227 | 3.2 | 8.0 | 0.00 | 0.00 | 0.00 | 64 | 1010.2 |
| 20260509114339 | 11 | 226 | 3.2 | 6.4 | 0.00 | 0.00 | 0.00 | 63 | 1010.2 |
| 20260509113832 | 11 | 226 | 1.6 | 4.8 | 0.00 | 0.00 | 0.00 | 64 | 1010.2 |
| 20260509113326 | 11 | 226 | 1.6 | 3.2 | 0.00 | 0.00 | 0.00 | 62 | 1010.1 |
| 20260509113039 | 11 | 226 | 1.6 | 3.2 | 0.00 | 0.00 | 0.00 | 62 | 1010.1 |
| 20260509112315 | 11 | 226 | 1.6 | 3.2 | 0.00 | 0.00 | 0.00 | 61 | 1010.1 |
| 20260509111815 | 11 | 226 | 1.6 | 4.8 | 0.00 | 0.00 | 0.00 | 62 | 1010.0 |
| 20260509111315 | 11 | 226 | 1.6 | 4.8 | 0.00 | 0.00 | 0.00 | 62 | 1010.0 |
| 20260509110814 | 11 | 226 | 3.2 | 4.8 | 0.00 | 0.00 | 0.00 | 62 | 1010.1 |
| 20260509110313 | 11 | 226 | 3.2 | 4.8 | 0.00 | 0.00 | 0.00 | 62 | 1010.0 |
| 20260509105810 | 11 | 226 | 3.2 | 4.8 | 0.00 | 0.00 | 0.00 | 62 | 1010.0 |
| 20260509105310 | 11 | 226 | 3.2 | 4.8 | 0.00 | 0.00 | 0.00 | 61 | 1010.0 |
| 20260509104811 | 11 | 226 | 1.6 | 4.8 | 0.00 | 0.00 | 0.00 | 61 | 1009.9 |
| 20260509104309 | 11 | 226 | 1.6 | 3.2 | 0.00 | 0.00 | 0.00 | 61 | 1009.8 |
| 20260509103809 | 11 | 226 | 1.6 | 3.2 | 0.00 | 0.00 | 0.00 | 61 | 1009.8 |
| 20260509103309 | 11 | 226 | 1.6 | 4.8 | 0.00 | 0.00 | 0.00 | 61 | 1009.7 |
| 20260509102808 | 11 | 226 | 1.6 | 4.8 | 0.00 | 0.00 | 0.00 | 61 | 1009.8 |
| 20260509102309 | 11 | 226 | 1.6 | 4.8 | 0.00 | 0.00 | 0.00 | 61 | 1009.8 |
| 20260509101809 | 11 | 227 | 0.0 | 3.2 | 0.00 | 0.00 | 0.00 | 61 | 1009.8 |
| 20260509101308 | 11 | 227 | 0.0 | 3.2 | 0.00 | 0.00 | 0.00 | 61 | 1009.9 |
| 20260509100808 | 11 | 227 | 1.6 | 3.2 | 0.00 | 0.00 | 0.00 | 61 | 1009.9 |
| 20260509100309 | 11 | 227 | 1.6 | 3.2 | 0.00 | 0.00 | 0.00 | 61 | 1009.9 |
| 20260509095809 | 11 | 227 | 0.0 | 3.2 | 0.00 | 0.00 | 0.00 | 61 | 1009.9 |
| 20260509095309 | 11 | 227 | 1.6 | 4.8 | 0.00 | 0.00 | 0.00 | 61 | 1009.9 |
| 20260509095029 | 11 | 227 | 1.6 | 4.8 | 0.00 | 0.00 | 0.00 | 60 | 1010.0 |
| 20260509094309 | 11 | 227 | 1.6 | 4.8 | 0.00 | 0.00 | 0.00 | 60 | 1010.0 |
| 20260509094257 | 11 | 227 | 3.2 | 4.8 | 0.00 | 0.00 | 0.00 | 60 | 1010.0 |